Aeroporto :
LOGIN :

Iscrizione | Disclaimer

   EN    FR    IT 

 










Sommario :    VFR   VFR Marginale   IFR   IFR Intensivo   IFR Molto Intensivo
Visibilità : 
Base nubi : 
>= 8 km
>= 3000ft
5 / 8 km
1000 / 3000 ft
1500m / 5 km
500 / 1000 ft
800 / 1500m
200 / 500 ft
< 800m
< 200 ft
Simboli :   Temporali  Nebbia  Neve Forte  Precipitazioni Forti  Vento > 20 kt
SIGMETs :   Varie  Temporali  Ghiacco  Turbolenza  Onda orograficha  Ceneri Vulcaniche






- Altitudine del aeroporto : 313 ft


LFQA - Reims-Prunay

ULTIMO METAR :
  • 260730Z AUTO 29015KT 9999 RA SCT027/// BKN033/// BKN045/// ///CB 09/06 Q1004

METARs OBSOLETI :
  • 260700Z AUTO 29015KT 250V310 9999 -RA BKN032/// BKN039/// OVC049/// ///CB 10/05 Q1004
  • 260630Z AUTO 29016KT 9999 BKN035/// OVC050/// ///TCU 10/05 Q1004
  • 260600Z AUTO 29016G27KT 250V310 9999 OVC035 11/04 Q1004
  • 260530Z AUTO 29017KT 9999 OVC036 11/04 Q1004
  • 260500Z AUTO 29017KT 9999 BKN039 OVC045 11/05 Q1004
  • 260430Z AUTO 28015G25KT 250V310 9999 BKN042 BKN049 OVC058 11/05 Q1004

TAF N/A



MetMap, La meteo Aeronautica in un colpo d'occhio ! - Copyright ORBIFLY Dicembre 2007 - Disclaimer

ORBIFLY MET'MAP TEAM :

Programmazione e sviluppo : Alexandra Zaïnal
Concezione : Baudouin d'Aumeries
Aiuto per la programmazione : Marc-Olivier Méhu
Supporto tecnico e logistico : Manuel Goepfert
Aiuto per la traduzione : Arnaldo La Scala

Contatto : metmap@orbifly.com




FONTI E CREDITI :

   NOAA